Time;durP1;ratioP1;P1;durP2;ratioP2;P2;SDS_P1;SDS_P2;PMS_P1;PMS_P2;Temp;Humidity;BMP_temperature;BMP_pressure;BME280_temperature;BME280_humidity;BME280_pressure;Samples;Min_cycle;Max_cycle;Signal;HPM_P1;HPM_P2
2022/01/26 00:07:33;;;;;;;;;;;;;;;-144.99;100.00;52656.00;5014569;28;20403;-72
2022/01/26 00:10:00;;;;;;;;;;;;;;;-144.99;100.00;52643.78;5025626;28;19925;-72
2022/01/26 00:12:26;;;;;;;;;;;;;;;-144.99;100.00;52664.16;5013350;28;19925;-72
2022/01/26 00:14:52;;;;;;;;;;;;;;;-144.99;100.00;52676.38;5012635;28;20409;-73
2022/01/26 00:17:21;;;;;;;;;;;;;;;-144.99;100.00;52700.84;5012956;28;19928;-73
2022/01/26 00:19:53;;;;;;;;;;;;;;;-144.99;100.00;52692.69;5012071;28;19921;-73
2022/01/26 00:22:41;;;;;;;;;;;;;;;-144.99;100.00;52680.47;5016040;28;19926;-73
2022/01/26 00:25:22;;;;;;;;;;;;;;;-144.99;100.00;52629.50;5011926;28;19921;-74
2022/01/26 00:27:53;;;;;;;;;;;;;;;-144.99;100.00;52662.13;5019127;28;19963;-73
2022/01/26 00:38:38;;;;;;;;;;;;;;;-144.99;100.00;52653.97;5018366;28;19975;-72
2022/01/26 00:41:06;;;;;;;;;;;;;;;-144.99;100.00;52670.28;5020806;28;20040;-73
2022/01/26 00:43:36;;;;;;;;;;;;;;;-144.99;100.00;52692.69;5033106;28;19960;-72
2022/01/26 00:46:05;;;;;;;;;;;;;;;-144.99;100.00;52666.19;5033571;28;19925;-73
2022/01/26 00:48:32;;;;;;;;;;;;;;;-144.99;100.00;52656.00;5019528;28;20385;-73
2022/01/26 00:51:02;;;;;;;;;;;;;;;-144.99;100.00;52651.94;5015640;28;19928;-73
2022/01/26 00:53:33;;;;;;;;;;;;;;;-144.99;100.00;52664.16;5015609;28;19948;-73
2022/01/26 00:56:01;;;;;;;;;;;;;;;-144.99;100.00;52660.09;5015384;28;19925;-72
2022/01/26 00:58:28;;;;;;;;;;;;;;;-144.99;100.00;52656.00;5015878;28;19922;-73
2022/01/26 01:00:55;;;;;;;;;;;;;;;-144.99;100.00;52672.31;5002692;28;19979;-73
2022/01/26 01:03:22;;;;;;;;;;;;;;;-144.99;100.00;52692.69;5016050;28;20030;-73
2022/01/26 01:05:54;;;;;;;;;;;;;;;-144.99;100.00;52664.16;5015569;28;19921;-73
2022/01/26 01:08:23;;;;;;;;;;;;;;;-144.99;100.00;52660.09;5021164;28;20269;-73
2022/01/26 01:10:51;;;;;;;;;;;;;;;-144.99;100.00;52668.22;5021443;28;19925;-73
2022/01/26 01:13:22;;;;;;;;;;;;;;;-144.99;100.00;52651.94;5015905;28;19922;-73
2022/01/26 01:15:49;;;;;;;;;;;;;;;-144.99;100.00;52647.84;5017416;28;19996;-73
2022/01/26 01:18:21;;;;;;;;;;;;;;;-144.99;100.00;52656.00;5015198;28;19929;-73
2022/01/26 01:21:08;;;;;;;;;;;;;;;-144.99;100.00;52668.22;5008010;28;19996;-73
2022/01/26 01:24:04;;;;;;;;;;;;;;;-144.99;100.00;52713.09;5026810;28;20012;-73
2022/01/26 01:26:47;;;;;;;;;;;;;;;-144.99;100.00;52651.94;5012189;28;20220;-73
2022/01/26 01:29:22;;;;;;;;;;;;;;;-144.99;100.00;52651.94;5015508;28;19923;-73
2022/01/26 01:31:54;;;;;;;;;;;;;;;-144.99;100.00;52625.44;5015130;28;19921;-73
2022/01/26 01:34:22;;;;;;;;;;;;;;;-144.99;100.00;52680.47;5015003;28;19944;-74
2022/01/26 01:36:50;;;;;;;;;;;;;;;-144.99;100.00;52619.31;5013570;28;19929;-73
2022/01/26 01:39:17;;;;;;;;;;;;;;;-144.99;100.00;52676.38;5014232;28;19925;-73
2022/01/26 01:41:45;;;;;;;;;;;;;;;-144.99;100.00;52680.47;5014272;28;19921;-73
2022/01/26 01:44:12;;;;;;;;;;;;;;;-144.99;100.00;52688.63;5014354;28;19921;-73
2022/01/26 01:46:41;;;;;;;;;;;;;;;-144.99;100.00;52680.47;5013482;28;19921;-74
2022/01/26 01:49:08;;;;;;;;;;;;;;;-144.99;100.00;52676.38;5014319;28;19925;-73
2022/01/26 01:51:38;;;;;;;;;;;;;;;-144.99;100.00;52625.44;5013810;28;20188;-73
2022/01/26 01:54:04;;;;;;;;;;;;;;;-144.99;100.00;52680.47;5014233;28;19944;-73
2022/01/26 01:56:31;;;;;;;;;;;;;;;-144.99;100.00;52688.63;5014724;28;19921;-73
2022/01/26 01:58:58;;;;;;;;;;;;;;;-144.99;100.00;52692.69;5014933;28;20364;-75
2022/01/26 02:01:25;;;;;;;;;;;;;;;-144.99;100.00;52643.78;5012393;28;20355;-74
2022/01/26 02:03:53;;;;;;;;;;;;;;;-144.99;100.00;52672.31;5013647;28;19922;-74
2022/01/26 02:06:19;;;;;;;;;;;;;;;-144.99;100.00;52676.38;5013102;28;20324;-75
2022/01/26 02:08:46;;;;;;;;;;;;;;;-144.99;100.00;52676.38;5018022;28;19925;-74
2022/01/26 02:11:13;;;;;;;;;;;;;;;-144.99;100.00;52651.94;5013010;28;19921;-74
2022/01/26 02:13:48;;;;;;;;;;;;;;;-144.99;100.00;52664.16;5021257;28;20304;-75
2022/01/26 02:16:21;;;;;;;;;;;;;;;-144.99;100.00;52690.66;5012650;28;19928;-74
2022/01/26 02:19:08;;;;;;;;;;;;;;;-144.99;100.00;52733.47;5012719;28;20385;-75
2022/01/26 02:49:41;;;;;;;;;;;;;;;-144.99;100.00;52688.63;5012127;28;19927;-74
2022/01/26 02:52:18;;;;;;;;;;;;;;;-144.99;100.00;52680.47;5012307;28;20375;-74
2022/01/26 02:55:09;;;;;;;;;;;;;;;-144.99;100.00;52688.63;5011916;28;20416;-75
2022/01/26 02:57:48;;;;;;;;;;;;;;;-144.99;100.00;52700.84;5011788;28;19921;-75
2022/01/26 03:00:21;;;;;;;;;;;;;;;-144.99;100.00;52643.78;5004857;28;19925;-74
2022/01/26 03:02:53;;;;;;;;;;;;;;;-144.99;100.00;52684.53;5017890;28;19921;-75
2022/01/26 03:05:24;;;;;;;;;;;;;;;-144.99;100.00;52639.69;5011685;28;19931;-73
2022/01/26 03:07:55;;;;;;;;;;;;;;;-144.99;100.00;52676.38;5013523;28;19955;-74
2022/01/26 03:10:30;;;;;;;;;;;;;;;-144.99;100.00;52684.53;5023709;28;19935;-74
2022/01/26 03:13:11;;;;;;;;;;;;;;;-144.99;100.00;52668.22;5012277;28;19933;-74
2022/01/26 03:15:58;;;;;;;;;;;;;;;-144.99;100.00;52666.19;5012397;28;19968;-75
2022/01/26 03:22:02;;;;;;;;;;;;;;;-144.99;100.00;52643.78;5031366;28;19921;-75
2022/01/26 03:30:36;;;;;;;;;;;;;;;-144.99;100.00;52680.47;5030477;28;19975;-75
2022/01/26 03:33:23;;;;;;;;;;;;;;;-144.99;100.00;52668.22;5029827;28;19922;-75
2022/01/26 03:35:53;;;;;;;;;;;;;;;-144.99;100.00;52684.53;5029520;28;19922;-75
2022/01/26 03:38:23;;;;;;;;;;;;;;;-144.99;100.00;52700.84;5029744;28;19921;-75
2022/01/26 03:40:59;;;;;;;;;;;;;;;-144.99;100.00;52692.69;5029666;28;19922;-74
2022/01/26 03:43:27;;;;;;;;;;;;;;;-144.99;100.00;52668.22;5029655;28;19936;-75
2022/01/26 03:45:53;;;;;;;;;;;;;;;-144.99;100.00;52700.84;5029857;28;19932;-75
2022/01/26 03:48:20;;;;;;;;;;;;;;;-144.99;100.00;52688.63;5033502;28;19921;-75
2022/01/26 03:50:46;;;;;;;;;;;;;;;-144.99;100.00;52682.50;5034000;28;19922;-75
2022/01/26 03:53:12;;;;;;;;;;;;;;;-144.99;100.00;52676.38;5030521;28;19939;-75
2022/01/26 03:55:39;;;;;;;;;;;;;;;-144.99;100.00;52686.59;5031765;28;19921;-76
2022/01/26 03:58:05;;;;;;;;;;;;;;;-144.99;100.00;52717.16;5032000;28;19972;-76
2022/01/26 04:00:33;;;;;;;;;;;;;;;-144.99;100.00;52656.00;5030903;28;19959;-76
2022/01/26 04:02:59;;;;;;;;;;;;;;;-144.99;100.00;52651.94;5034581;28;19921;-76
2022/01/26 04:05:27;;;;;;;;;;;;;;;-144.99;100.00;52643.78;5032183;28;20005;-75
2022/01/26 04:07:58;;;;;;;;;;;;;;;-144.99;100.00;52684.53;5031184;28;19975;-75
2022/01/26 04:10:35;;;;;;;;;;;;;;;-144.99;100.00;52696.78;5020138;28;19921;-75
2022/01/26 04:13:02;;;;;;;;;;;;;;;-144.99;100.00;52702.88;5016039;28;19922;-74
2022/01/26 04:15:32;;;;;;;;;;;;;;;-144.99;100.00;52696.78;5014912;28;20016;-74
2022/01/26 04:18:01;;;;;;;;;;;;;;;-144.99;100.00;52672.31;5014822;28;19927;-75
2022/01/26 04:20:31;;;;;;;;;;;;;;;-144.99;100.00;52696.78;5016353;28;19921;-75
2022/01/26 04:23:09;;;;;;;;;;;;;;;-144.99;100.00;52672.31;5016877;28;20361;-75
2022/01/26 04:25:36;;;;;;;;;;;;;;;-144.99;100.00;52684.53;5014558;28;19921;-75
2022/01/26 04:28:07;;;;;;;;;;;;;;;-144.99;100.00;52709.00;5014345;28;19921;-74
2022/01/26 04:30:33;;;;;;;;;;;;;;;-144.99;100.00;52725.31;5013499;28;19936;-74
2022/01/26 04:33:04;;;;;;;;;;;;;;;-144.99;100.00;52668.22;5019808;28;19932;-75
2022/01/26 04:35:30;;;;;;;;;;;;;;;-144.99;100.00;52704.94;5031039;28;19944;-76
2022/01/26 04:38:13;;;;;;;;;;;;;;;-144.99;100.00;52668.22;5031442;28;19921;-76
2022/01/26 04:40:47;;;;;;;;;;;;;;;-144.99;100.00;52690.66;5039284;28;19925;-75
2022/01/26 04:43:18;;;;;;;;;;;;;;;-144.99;100.00;52645.81;5018872;28;19925;-75
2022/01/26 04:45:45;;;;;;;;;;;;;;;-144.99;100.00;52656.00;5028840;28;19932;-74
2022/01/26 04:48:12;;;;;;;;;;;;;;;-144.99;100.00;52670.28;5015361;28;19925;-75
2022/01/26 04:50:39;;;;;;;;;;;;;;;-144.99;100.00;52696.78;5014400;28;19975;-74
2022/01/26 04:53:05;;;;;;;;;;;;;;;-144.99;100.00;52647.84;5013954;28;19921;-75
2022/01/26 04:55:31;;;;;;;;;;;;;;;-144.99;100.00;52676.38;5024297;28;19929;-74
2022/01/26 04:57:58;;;;;;;;;;;;;;;-144.99;100.00;52651.94;5033829;28;19981;-75
2022/01/26 05:00:24;;;;;;;;;;;;;;;-144.99;100.00;52670.28;5029990;28;19932;-75
2022/01/26 05:02:51;;;;;;;;;;;;;;;-144.99;100.00;52639.69;5016675;28;20368;-75
2022/01/26 05:05:19;;;;;;;;;;;;;;;-144.99;100.00;52680.47;5015715;28;19921;-75
2022/01/26 05:07:45;;;;;;;;;;;;;;;-144.99;100.00;52692.69;5016737;28;20452;-75
2022/01/26 05:10:11;;;;;;;;;;;;;;;-144.99;100.00;52662.13;5020015;28;19936;-74
2022/01/26 05:12:40;;;;;;;;;;;;;;;-144.99;100.00;52651.94;5013954;28;19929;-74
2022/01/26 05:15:07;;;;;;;;;;;;;;;-144.99;100.00;52678.44;5014088;28;20015;-74
2022/01/26 05:17:33;;;;;;;;;;;;;;;-144.99;100.00;52696.78;5014370;28;19922;-74
2022/01/26 05:20:01;;;;;;;;;;;;;;;-144.99;100.00;52643.78;5013838;28;20347;-73
2022/01/26 05:22:30;;;;;;;;;;;;;;;-144.99;100.00;52656.00;5020167;28;19925;-75
2022/01/26 05:24:57;;;;;;;;;;;;;;;-144.99;100.00;52700.84;5013974;28;19921;-74
2022/01/26 05:27:23;;;;;;;;;;;;;;;-144.99;100.00;52656.00;5024470;28;19929;-74
2022/01/26 05:29:49;;;;;;;;;;;;;;;-144.99;100.00;52668.22;5025410;28;19945;-74
2022/01/26 05:32:16;;;;;;;;;;;;;;;-144.99;100.00;52684.53;5020055;28;19922;-74
2022/01/26 05:34:42;;;;;;;;;;;;;;;-144.99;100.00;52639.69;5014110;28;20013;-74
2022/01/26 05:37:09;;;;;;;;;;;;;;;-144.99;100.00;52688.63;5014756;28;19921;-74
2022/01/26 05:39:38;;;;;;;;;;;;;;;-144.99;100.00;52613.19;5014481;28;19928;-74
2022/01/26 05:42:05;;;;;;;;;;;;;;;-144.99;100.00;52700.84;5013963;28;19928;-74
2022/01/26 05:44:31;;;;;;;;;;;;;;;-144.99;100.00;52692.69;5013289;28;20000;-74
2022/01/26 05:46:58;;;;;;;;;;;;;;;-144.99;100.00;52664.16;5012873;28;19925;-73
2022/01/26 05:49:25;;;;;;;;;;;;;;;-144.99;100.00;52680.47;5021231;28;19953;-76
2022/01/26 05:51:57;;;;;;;;;;;;;;;-144.99;100.00;52676.38;5013471;28;19925;-74
2022/01/26 05:54:23;;;;;;;;;;;;;;;-144.99;100.00;52709.00;5013093;28;19922;-75
2022/01/26 05:56:51;;;;;;;;;;;;;;;-144.99;100.00;52651.94;5013586;28;19952;-75
2022/01/26 05:59:20;;;;;;;;;;;;;;;-144.99;100.00;52676.38;5013494;28;19921;-73
2022/01/26 06:01:46;;;;;;;;;;;;;;;-144.99;100.00;52692.69;5013657;28;19927;-75
2022/01/26 06:04:13;;;;;;;;;;;;;;;-144.99;100.00;52678.44;5013865;28;20372;-75
2022/01/26 06:06:39;;;;;;;;;;;;;;;-144.99;100.00;52672.31;5013638;28;19921;-75
2022/01/26 06:09:06;;;;;;;;;;;;;;;-144.99;100.00;52676.38;5023470;28;19943;-74
2022/01/26 06:11:32;;;;;;;;;;;;;;;-144.99;100.00;52676.38;5020247;28;19925;-75
2022/01/26 06:14:00;;;;;;;;;;;;;;;-144.99;100.00;52676.38;5028947;28;19922;-76
2022/01/26 06:16:26;;;;;;;;;;;;;;;-144.99;100.00;52664.16;5030760;28;19992;-76
2022/01/26 06:18:52;;;;;;;;;;;;;;;-144.99;100.00;52668.22;5032240;28;19921;-75
2022/01/26 06:21:21;;;;;;;;;;;;;;;-144.99;100.00;52692.69;5025279;28;20007;-74
2022/01/26 06:23:47;;;;;;;;;;;;;;;-144.99;100.00;52635.63;5015748;28;19921;-75
2022/01/26 06:26:14;;;;;;;;;;;;;;;-144.99;100.00;52709.00;5015040;28;19925;-75
2022/01/26 06:28:40;;;;;;;;;;;;;;;-144.99;100.00;52664.16;5013154;28;19926;-74
2022/01/26 06:31:10;;;;;;;;;;;;;;;-144.99;100.00;52651.94;5012791;28;19969;-74
2022/01/26 06:33:39;;;;;;;;;;;;;;;-144.99;100.00;52709.00;5012722;28;19928;-74
2022/01/26 06:36:06;;;;;;;;;;;;;;;-144.99;100.00;52664.16;5012864;28;20020;-74
2022/01/26 06:38:32;;;;;;;;;;;;;;;-144.99;100.00;52656.00;5018505;28;20327;-75
2022/01/26 06:41:00;;;;;;;;;;;;;;;-144.99;100.00;52668.22;5021832;28;19922;-74
2022/01/26 06:43:29;;;;;;;;;;;;;;;-144.99;100.00;52706.97;5012226;28;20450;-74
2022/01/26 06:46:00;;;;;;;;;;;;;;;-144.99;100.00;52664.16;5012577;28;19921;-75
2022/01/26 06:51:08;;;;;;;;;;;;;;;-144.99;100.00;52643.78;5010400;28;19948;-73
2022/01/26 06:53:35;;;;;;;;;;;;;;;-144.99;100.00;52725.31;5012534;28;19932;-75
2022/01/26 06:56:01;;;;;;;;;;;;;;;-144.99;100.00;52668.22;5012748;28;20339;-74
2022/01/26 06:58:27;;;;;;;;;;;;;;;-144.99;100.00;52696.78;5012250;28;19921;-74
2022/01/26 07:00:54;;;;;;;;;;;;;;;-144.99;100.00;52688.63;5012111;28;19925;-74
2022/01/26 07:03:20;;;;;;;;;;;;;;;-144.99;100.00;52709.00;5012518;28;19927;-74
2022/01/26 07:05:48;;;;;;;;;;;;;;;-144.99;100.00;52664.16;5013041;28;20416;-74
2022/01/26 07:08:14;;;;;;;;;;;;;;;-144.99;100.00;52688.63;5020191;28;19932;-75
2022/01/26 07:10:41;;;;;;;;;;;;;;;-144.99;100.00;52668.22;5016757;28;19928;-74
2022/01/26 07:13:07;;;;;;;;;;;;;;;-144.99;100.00;52704.94;5016608;28;19922;-75
2022/01/26 07:21:26;;;;;;;;;;;;;;;-144.99;100.00;52700.84;5019786;28;19936;-76
2022/01/26 07:23:52;;;;;;;;;;;;;;;-144.99;100.00;52688.63;5015686;28;19925;-75
2022/01/26 07:26:19;;;;;;;;;;;;;;;-144.99;100.00;52688.63;5012932;28;19922;-76
2022/01/26 07:28:45;;;;;;;;;;;;;;;-144.99;100.00;52639.69;5013803;28;19980;-76
2022/01/26 07:31:12;;;;;;;;;;;;;;;-144.99;100.00;52690.66;5013400;28;19944;-75
2022/01/26 07:33:39;;;;;;;;;;;;;;;-144.99;100.00;52688.63;5013968;28;19922;-74
2022/01/26 07:36:06;;;;;;;;;;;;;;;-144.99;100.00;52692.69;5017518;28;19949;-76
2022/01/26 07:38:33;;;;;;;;;;;;;;;-144.99;100.00;52676.38;5018749;28;19922;-76
2022/01/26 07:40:59;;;;;;;;;;;;;;;-144.99;100.00;52704.94;5017253;28;19921;-75
2022/01/26 07:43:26;;;;;;;;;;;;;;;-144.99;100.00;52662.13;5016952;28;20371;-76
2022/01/26 07:45:52;;;;;;;;;;;;;;;-144.99;100.00;52607.09;5018128;28;19931;-76
2022/01/26 07:48:19;;;;;;;;;;;;;;;-144.99;100.00;52696.78;5014322;28;19948;-76
2022/01/26 07:50:45;;;;;;;;;;;;;;;-144.99;100.00;52723.28;5015707;28;19921;-76
2022/01/26 07:53:16;;;;;;;;;;;;;;;-144.99;100.00;52725.31;5016471;28;19925;-75
2022/01/26 07:55:42;;;;;;;;;;;;;;;-144.99;100.00;52653.97;5016801;28;19932;-75
2022/01/26 07:58:10;;;;;;;;;;;;;;;-144.99;100.00;52688.63;5016594;28;19929;-75
2022/01/26 08:00:36;;;;;;;;;;;;;;;-144.99;100.00;52637.66;5047861;22;20039;-75
2022/01/26 08:03:02;;;;;;;;;;;;;;;-144.99;100.00;52723.28;5046197;28;19925;-76
2022/01/26 08:05:29;;;;;;;;;;;;;;;-144.99;100.00;52664.16;5045438;28;19925;-77
2022/01/26 08:07:55;;;;;;;;;;;;;;;-144.99;100.00;52704.94;5053608;28;19920;-77
2022/01/26 08:10:23;;;;;;;;;;;;;;;-144.99;100.00;52660.09;5053004;28;20102;-76
2022/01/26 08:12:50;;;;;;;;;;;;;;;-144.99;100.00;52676.38;5052398;28;19962;-76
2022/01/26 08:15:16;;;;;;;;;;;;;;;-144.99;100.00;52668.22;5054811;28;19931;-76
2022/01/26 08:17:43;;;;;;;;;;;;;;;-144.99;100.00;52680.47;5072455;28;20386;-76
2022/01/26 08:20:10;;;;;;;;;;;;;;;-144.99;100.00;52672.31;5060617;28;19920;-74
2022/01/26 08:22:37;;;;;;;;;;;;;;;-144.99;100.00;52692.69;5046767;28;19920;-76
2022/01/26 08:25:03;;;;;;;;;;;;;;;-144.99;100.00;52729.38;5052504;28;20307;-76
2022/01/26 08:27:39;;;;;;;;;;;;;;;-144.99;100.00;52653.97;5061275;28;19935;-75
2022/01/26 08:30:09;;;;;;;;;;;;;;;-144.99;100.00;52711.03;5051743;28;19921;-76
2022/01/26 08:32:35;;;;;;;;;;;;;;;-144.99;100.00;52660.09;5051277;28;19967;-77
2022/01/26 08:35:02;;;;;;;;;;;;;;;-144.99;100.00;52692.69;5051042;28;19920;-77
2022/01/26 08:37:28;;;;;;;;;;;;;;;-144.99;100.00;52741.63;5042187;28;19921;-77
2022/01/26 08:39:55;;;;;;;;;;;;;;;-144.99;100.00;52704.94;5049011;28;19924;-76
2022/01/26 08:42:21;;;;;;;;;;;;;;;-144.99;100.00;52666.19;5065946;28;19940;-77
2022/01/26 08:44:49;;;;;;;;;;;;;;;-144.99;100.00;52700.84;5070485;28;19920;-76
2022/01/26 08:47:15;;;;;;;;;;;;;;;-144.99;100.00;52660.09;5091661;28;19973;-76
2022/01/26 08:49:41;;;;;;;;;;;;;;;-144.99;100.00;52684.53;5070762;28;19928;-76
2022/01/26 08:52:08;;;;;;;;;;;;;;;-144.99;100.00;52688.63;5066376;28;19926;-75
2022/01/26 08:54:34;;;;;;;;;;;;;;;-144.99;100.00;52658.03;5071207;28;19966;-76
2022/01/26 08:57:01;;;;;;;;;;;;;;;-144.99;100.00;52672.31;5071375;28;20229;-76
2022/01/26 08:59:28;;;;;;;;;;;;;;;-144.99;100.00;52651.94;5071042;28;19920;-76
2022/01/26 09:01:55;;;;;;;;;;;;;;;-144.99;100.00;52709.00;5070770;28;19938;-76
2022/01/26 09:04:22;;;;;;;;;;;;;;;-144.99;100.00;52690.66;5070985;28;19994;-76
2022/01/26 09:06:53;;;;;;;;;;;;;;;-144.99;100.00;52702.88;5070285;28;19920;-77
2022/01/26 09:09:20;;;;;;;;;;;;;;;-144.99;100.00;52647.84;5040557;28;19971;-76
2022/01/26 09:11:48;;;;;;;;;;;;;;;-144.99;100.00;52688.63;5043986;28;19944;-76
2022/01/26 09:14:18;;;;;;;;;;;;;;;-144.99;100.00;52692.69;5043318;28;19928;-77
2022/01/26 09:16:45;;;;;;;;;;;;;;;-144.99;100.00;52713.09;5051294;28;19986;-77
2022/01/26 09:19:24;;;;;;;;;;;;;;;-144.99;100.00;52684.53;5051440;28;19979;-76
2022/01/26 09:21:50;;;;;;;;;;;;;;;-144.99;100.00;52653.97;5050225;28;19932;-76
2022/01/26 09:24:17;;;;;;;;;;;;;;;-144.99;100.00;52664.16;5050199;28;19921;-77
2022/01/26 09:26:43;;;;;;;;;;;;;;;-144.99;100.00;52700.84;5066838;28;19971;-78
2022/01/26 09:29:09;;;;;;;;;;;;;;;-144.99;100.00;52668.22;5061438;28;19927;-76
2022/01/26 09:31:36;;;;;;;;;;;;;;;-144.99;100.00;52717.16;5055154;28;19927;-76
2022/01/26 09:34:02;;;;;;;;;;;;;;;-144.99;100.00;52688.63;5070731;28;20310;-78
2022/01/26 09:36:30;;;;;;;;;;;;;;;-144.99;100.00;52690.66;5070074;28;20295;-75
2022/01/26 09:38:56;;;;;;;;;;;;;;;-144.99;100.00;52700.84;5070484;28;20363;-76
2022/01/26 09:41:23;;;;;;;;;;;;;;;-144.99;100.00;52709.00;5070048;28;19982;-77
2022/01/26 09:43:52;;;;;;;;;;;;;;;-144.99;100.00;52688.63;5070022;28;19920;-76
2022/01/26 09:46:19;;;;;;;;;;;;;;;-144.99;100.00;52676.38;5069085;28;20404;-77
2022/01/26 09:48:45;;;;;;;;;;;;;;;-144.99;100.00;52688.63;5046082;28;19996;-76
2022/01/26 09:51:15;;;;;;;;;;;;;;;-144.99;100.00;52700.84;5048457;28;19928;-77
2022/01/26 09:54:00;;;;;;;;;;;;;;;-144.99;100.00;52698.81;5050601;28;19925;-77
2022/01/26 09:59:17;;;;;;;;;;;;;;;-144.99;100.00;52704.94;5068174;28;20025;-76
2022/01/26 10:01:54;;;;;;;;;;;;;;;-144.99;100.00;52704.94;5070043;28;19948;-77
2022/01/26 10:04:43;;;;;;;;;;;;;;;-144.99;100.00;52680.47;5070118;28;20015;-77
2022/01/26 10:07:18;;;;;;;;;;;;;;;-144.99;100.00;52688.63;5072752;28;19969;-78
2022/01/26 10:10:01;;;;;;;;;;;;;;;-144.99;100.00;52660.09;5055917;28;19988;-76
2022/01/26 10:15:33;;;;;;;;;;;;;;;-144.99;100.00;52700.84;5049743;28;19928;-77
2022/01/26 10:18:17;;;;;;;;;;;;;;;-144.99;100.00;52692.69;5049376;28;19943;-76
2022/01/26 10:21:04;;;;;;;;;;;;;;;-144.99;100.00;52668.22;5037794;28;19927;-78
2022/01/26 10:23:46;;;;;;;;;;;;;;;-144.99;100.00;52635.63;5047354;28;19986;-76
2022/01/26 10:26:25;;;;;;;;;;;;;;;-144.99;100.00;52684.53;5049498;28;20348;-77
2022/01/26 10:28:57;;;;;;;;;;;;;;;-144.99;100.00;52700.84;5050615;28;19925;-77
2022/01/26 10:31:25;;;;;;;;;;;;;;;-144.99;100.00;52692.69;5050223;28;19939;-77
2022/01/26 10:33:56;;;;;;;;;;;;;;;-144.99;100.00;52700.84;5050182;28;19931;-77
2022/01/26 10:36:22;;;;;;;;;;;;;;;-144.99;100.00;52700.84;5062817;28;19925;-77
2022/01/26 10:38:56;;;;;;;;;;;;;;;-144.99;100.00;52696.78;5035476;28;20394;-78
2022/01/26 10:41:24;;;;;;;;;;;;;;;-144.99;100.00;52662.13;5058414;28;19932;-78
2022/01/26 10:43:53;;;;;;;;;;;;;;;-144.99;100.00;52692.69;5056098;28;19927;-78
2022/01/26 10:46:28;;;;;;;;;;;;;;;-144.99;100.00;52709.00;5067783;28;19921;-78
2022/01/26 10:49:07;;;;;;;;;;;;;;;-144.99;100.00;52725.31;5055783;28;19927;-74
2022/01/26 10:51:42;;;;;;;;;;;;;;;-144.99;100.00;52692.69;5068492;28;19995;-76
2022/01/26 10:54:18;;;;;;;;;;;;;;;-144.99;100.00;52664.16;5068778;28;19936;-76
2022/01/26 10:56:48;;;;;;;;;;;;;;;-144.99;100.00;52684.53;5068774;28;19921;-76
2022/01/26 10:59:15;;;;;;;;;;;;;;;-144.99;100.00;52713.09;5067981;28;20016;-77
2022/01/26 11:01:41;;;;;;;;;;;;;;;-144.99;100.00;52688.63;5068257;28;20008;-76
2022/01/26 11:04:07;;;;;;;;;;;;;;;-144.99;100.00;52674.34;5068872;28;19920;-78
2022/01/26 11:06:34;;;;;;;;;;;;;;;-144.99;100.00;52700.84;5068542;28;19920;-75
2022/01/26 11:09:07;;;;;;;;;;;;;;;-144.99;100.00;52696.78;5047506;28;19925;-76
2022/01/26 11:11:33;;;;;;;;;;;;;;;-144.99;100.00;52698.81;5039832;28;19927;-76
2022/01/26 11:14:01;;;;;;;;;;;;;;;-144.99;100.00;52670.28;5047801;28;20376;-78
2022/01/26 11:16:28;;;;;;;;;;;;;;;-144.99;100.00;52678.44;5048242;28;19921;-76
2022/01/26 11:18:58;;;;;;;;;;;;;;;-144.99;100.00;52704.94;5063110;28;19921;-76
2022/01/26 11:21:25;;;;;;;;;;;;;;;-144.99;100.00;52704.94;5048009;28;19932;-76
2022/01/26 11:23:52;;;;;;;;;;;;;;;-144.99;100.00;52647.84;5048887;28;19920;-76
2022/01/26 11:26:22;;;;;;;;;;;;;;;-144.99;100.00;52680.47;5060199;28;19970;-75
2022/01/26 11:28:48;;;;;;;;;;;;;;;-144.99;100.00;52684.53;5069277;28;19927;-75
2022/01/26 11:31:17;;;;;;;;;;;;;;;-144.99;100.00;52688.63;5050962;28;19935;-76
2022/01/26 11:33:44;;;;;;;;;;;;;;;-144.99;100.00;52656.00;5049750;28;19921;-76
2022/01/26 11:36:14;;;;;;;;;;;;;;;-144.99;100.00;52696.78;5048479;28;19921;-77
2022/01/26 11:42:12;;;;;;;;;;;;;;;-144.99;100.00;52696.78;5048879;28;19932;-77
2022/01/26 11:42:21;;;;;;;;;;;;;;;-144.99;100.00;52684.53;5049405;28;19964;-76
2022/01/26 11:45:07;;;;;;;;;;;;;;;-144.99;100.00;52692.69;5028616;28;20566;-77
2022/01/26 11:47:36;;;;;;;;;;;;;;;-144.99;100.00;52692.69;5043397;28;20331;-78
2022/01/26 11:50:07;;;;;;;;;;;;;;;-144.99;100.00;52684.53;5048434;28;20016;-80
2022/01/26 11:52:37;;;;;;;;;;;;;;;-144.99;100.00;52694.72;5067276;28;19921;-76
2022/01/26 11:55:07;;;;;;;;;;;;;;;-144.99;100.00;52668.22;5069841;28;19920;-77
2022/01/26 11:57:38;;;;;;;;;;;;;;;-144.99;100.00;52662.13;5069786;28;20019;-77
2022/01/26 12:00:08;;;;;;;;;;;;;;;-144.99;100.00;52664.16;5069146;28;20265;-77
2022/01/26 12:02:49;;;;;;;;;;;;;;;-144.99;100.00;52676.38;5070017;28;19954;-79
2022/01/26 12:05:19;;;;;;;;;;;;;;;-144.99;100.00;52660.09;5066571;28;19977;-79
2022/01/26 12:07:49;;;;;;;;;;;;;;;-144.99;100.00;52651.94;5061632;28;19908;-79
2022/01/26 12:10:18;;;;;;;;;;;;;;;-144.99;100.00;52741.63;5067028;28;19931;-77
2022/01/26 12:12:44;;;;;;;;;;;;;;;-144.99;100.00;52704.94;5069402;28;20299;-77
2022/01/26 12:15:16;;;;;;;;;;;;;;;-144.99;100.00;52704.94;5068807;28;19983;-78
2022/01/26 12:17:59;;;;;;;;;;;;;;;-144.99;100.00;52668.22;5069429;28;20343;-77
2022/01/26 12:34:37;;;;;;;;;;;;;;;-144.99;100.00;52696.78;5072593;28;20413;-77
2022/01/26 12:37:12;;;;;;;;;;;;;;;-144.99;100.00;52678.44;5061829;28;20340;-78
2022/01/26 12:42:42;;;;;;;;;;;;;;;-144.99;100.00;52700.84;5048292;28;19928;-77
2022/01/26 12:45:11;;;;;;;;;;;;;;;-144.99;100.00;52684.53;5051851;28;19921;-78
2022/01/26 12:47:37;;;;;;;;;;;;;;;-144.99;100.00;52647.84;5053223;28;19920;-78
2022/01/26 12:50:05;;;;;;;;;;;;;;;-144.99;100.00;52706.97;5069383;28;19976;-79
2022/01/26 12:52:32;;;;;;;;;;;;;;;-144.99;100.00;52696.78;5055692;28;19931;-77
2022/01/26 12:54:58;;;;;;;;;;;;;;;-144.99;100.00;52633.59;5062956;28;19927;-77
2022/01/26 12:57:25;;;;;;;;;;;;;;;-144.99;100.00;52676.38;5054611;28;19936;-76
2022/01/26 12:59:59;;;;;;;;;;;;;;;-144.99;100.00;52664.16;5052339;28;19921;-77
2022/01/26 13:02:25;;;;;;;;;;;;;;;-144.99;100.00;52668.22;5052055;28;19988;-77
2022/01/26 13:04:58;;;;;;;;;;;;;;;-144.99;100.00;52674.34;5051047;28;19963;-78
2022/01/26 13:07:25;;;;;;;;;;;;;;;-144.99;100.00;52688.63;5052216;28;19920;-77
2022/01/26 13:09:52;;;;;;;;;;;;;;;-144.99;100.00;52700.84;5051561;28;19936;-75
2022/01/26 13:12:28;;;;;;;;;;;;;;;-144.99;100.00;52668.22;5049866;28;20383;-78
2022/01/26 13:15:03;;;;;;;;;;;;;;;-144.99;100.00;52696.78;5071656;28;19924;-78
2022/01/26 13:17:38;;;;;;;;;;;;;;;-144.99;100.00;52678.44;5063068;28;19921;-77
2022/01/26 13:20:20;;;;;;;;;;;;;;;-144.99;100.00;52651.94;5055182;28;19982;-77
2022/01/26 13:23:01;;;;;;;;;;;;;;;-144.99;100.00;52696.78;5047397;28;19990;-77
2022/01/26 13:25:37;;;;;;;;;;;;;;;-144.99;100.00;52668.22;5051250;28;20012;-78
2022/01/26 13:31:06;;;;;;;;;;;;;;;-144.99;100.00;52668.22;5049936;28;20007;-77
2022/01/26 13:34:01;;;;;;;;;;;;;;;-144.99;100.00;52709.00;5051074;28;19920;-77
2022/01/26 13:36:45;;;;;;;;;;;;;;;-144.99;100.00;52649.88;5068765;28;20055;-76
2022/01/26 13:39:27;;;;;;;;;;;;;;;-144.99;100.00;52700.84;5071236;28;19920;-78
2022/01/26 13:42:15;;;;;;;;;;;;;;;-144.99;100.00;52696.78;5051822;28;20079;-78
2022/01/26 13:44:57;;;;;;;;;;;;;;;-144.99;100.00;52680.47;5050001;28;19989;-77
2022/01/26 13:47:54;;;;;;;;;;;;;;;-144.99;100.00;52688.63;5058239;28;19925;-77
2022/01/26 13:50:27;;;;;;;;;;;;;;;-144.99;100.00;52668.22;5044110;28;19920;-77
2022/01/26 13:52:59;;;;;;;;;;;;;;;-144.99;100.00;52692.69;5058987;28;19924;-77
2022/01/26 13:58:29;;;;;;;;;;;;;;;-144.99;100.00;52688.63;5049397;28;20360;-76
2022/01/26 14:00:58;;;;;;;;;;;;;;;-144.99;100.00;52686.59;5037287;28;20026;-79
2022/01/26 14:03:27;;;;;;;;;;;;;;;-144.99;100.00;52645.81;5056210;22;19924;-78